Terminal Aerodrome Forecast
Issued by NWS Sioux Falls, SD

Home | Current Version | Previous Version | Graphics & Text | Print | Product List | Glossary Off
Versions: 1 2 3 4 5 6 7 8 9 10 11 12 13

587
FTUS43 KFSD 231722
TAFFSD
TAF
KFSD 231722Z 2318/2418 17016G24KT P6SM SCT015 BKN070
      TEMPO 2318/2320 P6SM -SHRA BKN015
     FM232000 16015G23KT P6SM VCTS BKN015CB
     FM232200 16014KT P6SM BKN025
     FM240100 15008KT P6SM BKN050
     FM240500 VRB03KT P6SM BKN110
     FM241300 34008KT P6SM FEW200=

USA.gov is the U.S. government's official web portal to all federal, state and local government web resources and services.